Time;durP1;ratioP1;P1;durP2;ratioP2;P2;SDS_P1;SDS_P2;PMS_P1;PMS_P2;Temp;Humidity;BMP_temperature;BMP_pressure;BME280_temperature;BME280_humidity;BME280_pressure;Samples;Min_cycle;Max_cycle;Signal;HPM_P1;HPM_P2
2022/12/17 13:06:35;;;;;;;1.40;1.40;;;;;;;;;;4993032;28;20428;-70
2022/12/17 13:09:05;;;;;;;1.30;1.30;;;;;;;;;;4992122;28;20455;-69
2022/12/17 13:11:36;;;;;;;1.20;1.20;;;;;;;;;;4988145;28;20843;-67
2022/12/17 13:14:04;;;;;;;1.20;1.20;;;;;;;;;;4996665;28;20429;-69
2022/12/17 13:16:36;;;;;;;1.25;1.25;;;;;;;;;;5001088;28;20455;-69
2022/12/17 13:19:23;;;;;;;1.27;1.27;;;;;;;;;;4974125;28;20439;-68
2022/12/17 13:21:49;;;;;;;1.20;1.20;;;;;;;;;;4966143;28;20423;-69
2022/12/17 13:24:22;;;;;;;1.10;1.10;;;;;;;;;;4988562;28;20431;-69
2022/12/17 13:26:48;;;;;;;1.10;1.10;;;;;;;;;;4990536;28;21550;-70
2022/12/17 13:29:22;;;;;;;1.30;1.30;;;;;;;;;;4981809;28;20415;-69
2022/12/17 13:32:17;;;;;;;1.20;1.20;;;;;;;;;;4988950;28;20584;-70
2022/12/17 13:34:46;;;;;;;1.25;1.25;;;;;;;;;;4979219;28;20802;-67
2022/12/17 13:37:30;;;;;;;1.10;1.10;;;;;;;;;;4993516;28;20423;-69
2022/12/17 13:40:08;;;;;;;1.10;1.10;;;;;;;;;;4971638;28;20538;-69
2022/12/17 13:42:35;;;;;;;1.20;1.20;;;;;;;;;;5003621;28;20445;-71
2022/12/17 13:45:00;;;;;;;1.20;1.20;;;;;;;;;;4961811;28;20421;-70
2022/12/17 13:47:27;;;;;;;1.25;1.25;;;;;;;;;;4979984;28;21027;-68
2022/12/17 13:49:55;;;;;;;1.17;1.17;;;;;;;;;;4965683;28;21175;-70
2022/12/17 13:52:22;;;;;;;1.30;1.30;;;;;;;;;;4979496;28;20434;-68
2022/12/17 13:54:48;;;;;;;1.10;1.10;;;;;;;;;;4956340;28;20420;-68
2022/12/17 13:57:17;;;;;;;1.30;1.30;;;;;;;;;;4939364;28;20446;-68
2022/12/17 13:59:53;;;;;;;1.17;1.17;;;;;;;;;;4946914;28;20970;-70
2022/12/17 14:02:29;;;;;;;1.27;1.27;;;;;;;;;;4921813;28;20877;-67
2022/12/17 14:04:56;;;;;;;1.10;1.10;;;;;;;;;;4980285;28;20440;-69
2022/12/17 14:07:22;;;;;;;1.30;1.30;;;;;;;;;;4943998;28;20429;-69
2022/12/17 14:09:48;;;;;;;1.10;1.10;;;;;;;;;;4979045;28;20874;-70
2022/12/17 14:12:23;;;;;;;1.15;1.15;;;;;;;;;;4968683;28;20416;-68
2022/12/17 14:14:59;;;;;;;1.40;1.40;;;;;;;;;;4979730;28;20914;-69
2022/12/17 14:17:26;;;;;;;1.27;1.27;;;;;;;;;;4962904;28;20430;-69
2022/12/17 14:20:12;;;;;;;1.20;1.20;;;;;;;;;;4981558;28;20599;-70
2022/12/17 14:22:39;;;;;;;1.42;1.42;;;;;;;;;;4959276;28;20423;-68
2022/12/17 14:25:06;;;;;;;1.10;1.10;;;;;;;;;;4955839;28;20551;-68
2022/12/17 14:27:33;;;;;;;1.10;1.10;;;;;;;;;;4920417;28;20431;-69
2022/12/17 14:29:59;;;;;;;1.30;1.30;;;;;;;;;;4960194;28;20429;-69
2022/12/17 14:32:34;;;;;;;1.20;1.20;;;;;;;;;;4969070;28;20492;-68
2022/12/17 14:35:01;;;;;;;1.23;1.23;;;;;;;;;;4974988;28;20521;-71
2022/12/17 14:37:27;;;;;;;1.30;1.30;;;;;;;;;;4980742;28;20925;-69
2022/12/17 14:39:54;;;;;;;1.20;1.20;;;;;;;;;;4987416;28;20921;-69
2022/12/17 14:42:24;;;;;;;1.30;1.30;;;;;;;;;;4956391;28;20821;-68
2022/12/17 14:44:50;;;;;;;1.30;1.30;;;;;;;;;;4955387;28;20437;-66
2022/12/17 14:47:31;;;;;;;1.05;1.05;;;;;;;;;;4936491;28;21016;-67
2022/12/17 14:49:57;;;;;;;1.20;1.20;;;;;;;;;;4941339;28;20419;-69
2022/12/17 14:52:29;;;;;;;1.10;1.10;;;;;;;;;;4980117;28;20922;-69
2022/12/17 14:54:55;;;;;;;1.20;1.20;;;;;;;;;;4957035;28;21554;-70
2022/12/17 14:57:22;;;;;;;1.00;1.00;;;;;;;;;;4963111;28;20512;-70
2022/12/17 14:59:49;;;;;;;1.10;1.10;;;;;;;;;;4979610;28;20471;-69
2022/12/17 15:02:19;;;;;;;1.10;1.10;;;;;;;;;;4954047;28;20427;-68
2022/12/17 15:04:45;;;;;;;1.00;1.00;;;;;;;;;;4956473;28;20520;-70
2022/12/17 15:07:14;;;;;;;1.10;1.10;;;;;;;;;;4981203;28;20435;-66
2022/12/17 15:09:40;;;;;;;0.88;0.88;;;;;;;;;;4970814;28;20439;-69
2022/12/17 15:12:07;;;;;;;1.10;1.10;;;;;;;;;;4961364;28;20496;-68
2022/12/17 15:14:32;;;;;;;0.90;0.90;;;;;;;;;;4972610;28;20533;-69
2022/12/17 15:17:00;;;;;;;1.00;1.00;;;;;;;;;;4988564;28;21226;-69
2022/12/17 15:19:26;;;;;;;1.10;1.10;;;;;;;;;;4969044;28;21013;-69
2022/12/17 15:21:52;;;;;;;1.10;1.10;;;;;;;;;;4975100;28;20460;-69
2022/12/17 15:24:19;;;;;;;1.00;1.00;;;;;;;;;;4984529;28;20450;-69
2022/12/17 15:26:45;;;;;;;0.90;0.90;;;;;;;;;;4973774;28;20716;-69
2022/12/17 15:29:11;;;;;;;1.20;1.20;;;;;;;;;;4965222;28;20436;-66
2022/12/17 15:31:37;;;;;;;1.15;1.15;;;;;;;;;;4980016;28;20411;-68
2022/12/17 15:34:03;;;;;;;1.10;1.10;;;;;;;;;;4978379;28;20926;-68
2022/12/17 15:36:30;;;;;;;1.00;1.00;;;;;;;;;;4974146;28;20984;-68
2022/12/17 15:38:56;;;;;;;1.25;1.25;;;;;;;;;;4979574;28;20464;-68
2022/12/17 15:44:07;;;;;;;1.00;1.00;;;;;;;;;;4961296;28;20447;-68
2022/12/17 15:46:32;;;;;;;1.30;1.30;;;;;;;;;;4956946;28;20431;-69
2022/12/17 15:48:58;;;;;;;1.00;1.00;;;;;;;;;;4967875;28;20425;-67
2022/12/17 15:51:24;;;;;;;1.00;1.00;;;;;;;;;;5027103;22;20449;-53
2022/12/17 15:53:50;;;;;;;1.30;1.30;;;;;;;;;;4959915;23;20447;-53
2022/12/17 15:56:20;;;;;;;1.20;1.20;;;;;;;;;;4963783;28;20467;-54
2022/12/17 15:58:46;;;;;;;1.10;1.10;;;;;;;;;;4968889;28;20478;-53
2022/12/17 16:01:12;;;;;;;1.10;1.10;;;;;;;;;;4973965;28;20896;-53
2022/12/17 16:03:38;;;;;;;1.10;1.10;;;;;;;;;;4958582;28;20449;-52
2022/12/17 16:06:04;;;;;;;1.20;1.20;;;;;;;;;;4947942;28;20762;-53
2022/12/17 16:08:30;;;;;;;1.20;1.20;;;;;;;;;;4968071;28;20429;-51
2022/12/17 16:10:56;;;;;;;1.00;1.00;;;;;;;;;;4947799;28;21028;-51
2022/12/17 16:13:22;;;;;;;1.25;1.25;;;;;;;;;;4947545;28;20628;-52
2022/12/17 16:15:57;;;;;;;1.20;1.20;;;;;;;;;;4953845;28;20404;-52
2022/12/17 16:18:23;;;;;;;1.27;1.27;;;;;;;;;;4948776;28;20471;-51
2022/12/17 16:20:49;;;;;;;1.40;1.40;;;;;;;;;;4965851;28;20445;-52
2022/12/17 16:23:15;;;;;;;1.10;1.10;;;;;;;;;;4951728;28;20863;-51
2022/12/17 16:25:41;;;;;;;1.05;1.05;;;;;;;;;;4957307;28;20421;-51
2022/12/17 16:28:07;;;;;;;1.10;1.10;;;;;;;;;;4955150;28;20487;-52
2022/12/17 16:30:33;;;;;;;1.30;1.30;;;;;;;;;;4955696;28;21183;-52
2022/12/17 16:32:59;;;;;;;1.10;1.10;;;;;;;;;;4963828;28;20971;-52
2022/12/17 16:35:27;;;;;;;1.07;1.07;;;;;;;;;;4948665;28;20427;-52
2022/12/17 16:37:53;;;;;;;1.20;1.20;;;;;;;;;;4972744;28;21000;-51
2022/12/17 16:40:19;;;;;;;1.10;1.10;;;;;;;;;;4951254;28;20438;-52
2022/12/17 16:42:45;;;;;;;1.20;1.20;;;;;;;;;;4975575;28;20427;-53
2022/12/17 16:45:11;;;;;;;1.20;1.20;;;;;;;;;;4964422;28;20423;-51
2022/12/17 16:47:37;;;;;;;1.10;1.10;;;;;;;;;;4962423;28;21103;-52
2022/12/17 16:50:03;;;;;;;1.00;1.00;;;;;;;;;;4939089;28;20412;-52
2022/12/17 16:52:29;;;;;;;0.90;0.90;;;;;;;;;;4927154;28;20930;-51
2022/12/17 16:54:55;;;;;;;0.90;0.90;;;;;;;;;;4953360;28;20932;-53
2022/12/17 16:57:21;;;;;;;1.00;1.00;;;;;;;;;;4948148;28;20414;-52
2022/12/17 16:59:47;;;;;;;1.00;1.00;;;;;;;;;;4936915;28;20761;-51
2022/12/17 17:02:13;;;;;;;0.98;0.98;;;;;;;;;;4956520;28;20528;-52
2022/12/17 17:04:39;;;;;;;1.07;1.07;;;;;;;;;;4932068;28;20466;-52
2022/12/17 17:07:05;;;;;;;0.90;0.90;;;;;;;;;;4935033;28;20452;-52
2022/12/17 17:09:31;;;;;;;1.10;1.10;;;;;;;;;;4949698;28;20423;-52
2022/12/17 17:11:57;;;;;;;0.90;0.90;;;;;;;;;;4944734;28;20437;-51
2022/12/17 17:14:24;;;;;;;0.73;0.73;;;;;;;;;;4957112;28;20485;-51
2022/12/17 17:16:50;;;;;;;0.90;0.90;;;;;;;;;;4943681;28;20907;-50
2022/12/17 17:19:16;;;;;;;0.90;0.90;;;;;;;;;;4940669;28;20504;-52
2022/12/17 17:21:42;;;;;;;0.90;0.90;;;;;;;;;;4946769;28;20471;-52
2022/12/17 17:24:09;;;;;;;0.80;0.80;;;;;;;;;;4952865;28;20430;-52
2022/12/17 17:26:35;;;;;;;0.90;0.90;;;;;;;;;;4933478;28;20921;-51
2022/12/17 17:29:02;;;;;;;0.80;0.80;;;;;;;;;;4939718;28;20845;-51
2022/12/17 17:31:28;;;;;;;0.90;0.90;;;;;;;;;;4928433;28;20440;-50
2022/12/17 17:33:53;;;;;;;0.85;0.85;;;;;;;;;;4942794;28;21546;-50
2022/12/17 17:36:26;;;;;;;1.10;1.10;;;;;;;;;;4936642;28;20424;-52
2022/12/17 17:38:56;;;;;;;1.10;1.10;;;;;;;;;;4930024;28;20420;-51
2022/12/17 17:41:23;;;;;;;1.00;1.00;;;;;;;;;;4938606;28;20911;-53
2022/12/17 17:43:52;;;;;;;0.80;0.80;;;;;;;;;;4924853;28;20534;-53
2022/12/17 17:46:18;;;;;;;1.00;1.00;;;;;;;;;;4927092;28;20440;-52
2022/12/17 17:48:44;;;;;;;0.70;0.70;;;;;;;;;;4944751;28;21108;-51
2022/12/17 17:51:14;;;;;;;0.70;0.70;;;;;;;;;;4938741;28;20908;-52
2022/12/17 17:53:41;;;;;;;0.70;0.70;;;;;;;;;;4952314;28;20530;-53
2022/12/17 17:56:13;;;;;;;0.70;0.70;;;;;;;;;;4959637;28;20566;-51
2022/12/17 17:58:39;;;;;;;0.90;0.90;;;;;;;;;;4937234;28;20417;-53
2022/12/17 18:01:12;;;;;;;0.80;0.80;;;;;;;;;;4946064;28;20526;-52
2022/12/17 18:03:38;;;;;;;0.80;0.80;;;;;;;;;;4951589;28;21241;-51
2022/12/17 18:06:06;;;;;;;0.80;0.80;;;;;;;;;;4949851;28;20468;-52
2022/12/17 18:08:32;;;;;;;0.70;0.70;;;;;;;;;;4937800;28;20430;-51
2022/12/17 18:10:58;;;;;;;0.70;0.70;;;;;;;;;;4935193;28;20419;-52
2022/12/17 18:16:08;;;;;;;0.70;0.70;;;;;;;;;;4934529;28;20510;-51
2022/12/17 18:18:34;;;;;;;0.90;0.90;;;;;;;;;;4940286;28;20442;-51
2022/12/17 18:21:04;;;;;;;0.80;0.80;;;;;;;;;;4953891;28;20533;-52
2022/12/17 18:23:30;;;;;;;0.73;0.73;;;;;;;;;;4931381;28;20428;-52
2022/12/17 18:25:56;;;;;;;0.70;0.70;;;;;;;;;;4938530;28;20440;-52
2022/12/17 18:28:22;;;;;;;0.77;0.77;;;;;;;;;;4916096;28;20849;-54
2022/12/17 18:30:48;;;;;;;0.80;0.80;;;;;;;;;;4934738;28;20756;-53
2022/12/17 18:33:14;;;;;;;0.70;0.70;;;;;;;;;;4947812;28;20432;-53
2022/12/17 18:35:40;;;;;;;0.85;0.85;;;;;;;;;;4948044;28;20428;-52
2022/12/17 18:38:06;;;;;;;0.70;0.70;;;;;;;;;;4945281;28;20522;-53
2022/12/17 18:40:34;;;;;;;0.80;0.80;;;;;;;;;;4930868;28;20533;-53
2022/12/17 18:45:44;;;;;;;0.70;0.70;;;;;;;;;;4928368;28;20474;-52
2022/12/17 18:48:10;;;;;;;0.77;0.77;;;;;;;;;;4942295;28;20698;-52
2022/12/17 18:50:36;;;;;;;0.88;0.88;;;;;;;;;;4941968;28;20417;-53
2022/12/17 18:53:02;;;;;;;0.70;0.70;;;;;;;;;;4940839;28;20428;-54
2022/12/17 18:55:28;;;;;;;0.70;0.70;;;;;;;;;;4909243;28;20446;-52
2022/12/17 18:57:54;;;;;;;0.80;0.80;;;;;;;;;;4943768;28;20429;-54
2022/12/17 19:00:20;;;;;;;0.80;0.80;;;;;;;;;;4930708;28;20406;-53
2022/12/17 19:02:46;;;;;;;0.80;0.80;;;;;;;;;;4930846;28;20429;-54
2022/12/17 19:05:12;;;;;;;0.70;0.70;;;;;;;;;;4946688;28;20874;-52
2022/12/17 19:07:38;;;;;;;0.70;0.70;;;;;;;;;;4936142;28;20792;-53
2022/12/17 19:10:04;;;;;;;0.90;0.90;;;;;;;;;;4923965;28;20418;-52
2022/12/17 19:12:30;;;;;;;0.98;0.98;;;;;;;;;;4931056;28;20954;-52
2022/12/17 19:14:56;;;;;;;0.85;0.85;;;;;;;;;;4940260;28;20428;-52
2022/12/17 19:17:22;;;;;;;0.67;0.67;;;;;;;;;;4950452;28;20420;-53
2022/12/17 19:19:48;;;;;;;0.70;0.70;;;;;;;;;;4944329;28;20414;-53
2022/12/17 19:22:14;;;;;;;0.80;0.80;;;;;;;;;;4941822;28;20411;-53
2022/12/17 19:24:40;;;;;;;0.90;0.90;;;;;;;;;;4932435;28;20595;-53
2022/12/17 19:27:06;;;;;;;0.90;0.90;;;;;;;;;;4960872;28;20433;-52
2022/12/17 19:29:32;;;;;;;1.00;1.00;;;;;;;;;;4914048;28;20439;-53
2022/12/17 19:31:58;;;;;;;0.90;0.90;;;;;;;;;;4916278;28;20414;-52
2022/12/17 19:34:24;;;;;;;0.70;0.70;;;;;;;;;;4933896;28;20422;-53
2022/12/17 19:36:50;;;;;;;0.90;0.90;;;;;;;;;;4942074;28;20454;-52
2022/12/17 19:39:17;;;;;;;0.90;0.90;;;;;;;;;;4928377;28;20467;-53
2022/12/17 19:41:43;;;;;;;0.80;0.80;;;;;;;;;;4913213;28;20441;-53
2022/12/17 19:44:13;;;;;;;0.80;0.80;;;;;;;;;;4946605;28;21343;-53
2022/12/17 19:46:39;;;;;;;0.70;0.70;;;;;;;;;;4927113;28;20626;-52
2022/12/17 19:49:05;;;;;;;0.70;0.70;;;;;;;;;;4930278;28;20420;-53
2022/12/17 19:51:31;;;;;;;0.70;0.70;;;;;;;;;;4918523;28;20427;-54
2022/12/17 19:53:57;;;;;;;0.73;0.73;;;;;;;;;;4943151;28;20430;-53
2022/12/17 19:56:26;;;;;;;0.80;0.80;;;;;;;;;;4944479;28;20929;-54
2022/12/17 19:58:54;;;;;;;0.80;0.80;;;;;;;;;;4954380;28;20424;-54
2022/12/17 20:01:23;;;;;;;0.80;0.80;;;;;;;;;;4924140;28;20810;-53
2022/12/17 20:03:49;;;;;;;0.80;0.80;;;;;;;;;;4937928;28;20492;-53
2022/12/17 20:06:15;;;;;;;0.80;0.80;;;;;;;;;;4942450;28;20441;-53
2022/12/17 20:08:41;;;;;;;0.73;0.73;;;;;;;;;;4953242;28;20454;-53
2022/12/17 20:11:31;;;;;;;0.70;0.70;;;;;;;;;;4932411;28;20422;-53
2022/12/17 20:13:58;;;;;;;1.00;1.00;;;;;;;;;;4925225;28;20951;-53
2022/12/17 20:16:24;;;;;;;0.90;0.90;;;;;;;;;;4921852;28;20512;-54
2022/12/17 20:18:50;;;;;;;0.80;0.80;;;;;;;;;;4923855;28;20916;-54
2022/12/17 20:21:16;;;;;;;0.75;0.75;;;;;;;;;;4905484;28;21344;-53
2022/12/17 20:23:42;;;;;;;0.87;0.87;;;;;;;;;;4922835;28;20404;-53
2022/12/17 20:26:08;;;;;;;0.80;0.80;;;;;;;;;;4944172;28;20512;-54
2022/12/17 20:28:34;;;;;;;0.80;0.80;;;;;;;;;;4933939;28;20424;-53
2022/12/17 20:31:01;;;;;;;0.80;0.80;;;;;;;;;;4945875;28;20927;-54
2022/12/17 20:33:27;;;;;;;0.70;0.70;;;;;;;;;;4934768;28;21093;-54
2022/12/17 20:35:53;;;;;;;0.80;0.80;;;;;;;;;;4940726;28;20475;-52
2022/12/17 20:38:19;;;;;;;0.95;0.95;;;;;;;;;;4939801;28;20883;-53
2022/12/17 20:40:45;;;;;;;0.80;0.80;;;;;;;;;;4937459;28;20426;-53
2022/12/17 20:43:11;;;;;;;0.80;0.80;;;;;;;;;;4955760;28;21110;-53
2022/12/17 20:45:37;;;;;;;0.80;0.80;;;;;;;;;;4936692;28;20431;-52
2022/12/17 20:48:02;;;;;;;0.70;0.70;;;;;;;;;;4947332;28;20562;-54
2022/12/17 20:50:28;;;;;;;0.70;0.70;;;;;;;;;;4947242;28;20480;-52
2022/12/17 20:52:54;;;;;;;0.70;0.70;;;;;;;;;;4932847;28;20447;-53
2022/12/17 20:55:20;;;;;;;0.70;0.70;;;;;;;;;;4937814;28;20509;-52
2022/12/17 20:57:46;;;;;;;1.00;1.00;;;;;;;;;;4947576;28;21270;-54
2022/12/17 21:00:12;;;;;;;0.88;0.88;;;;;;;;;;4927608;28;20410;-52
2022/12/17 21:02:38;;;;;;;0.70;0.70;;;;;;;;;;4923014;28;20428;-53
2022/12/17 21:05:04;;;;;;;1.00;1.00;;;;;;;;;;4905284;28;20427;-54
2022/12/17 21:07:30;;;;;;;1.00;1.00;;;;;;;;;;4920462;28;20421;-53
2022/12/17 21:09:56;;;;;;;0.93;0.93;;;;;;;;;;4925511;28;20465;-53
2022/12/17 21:13:27;;;;;;;0.80;0.80;;;;;;;;;;4917134;28;20435;-54
2022/12/17 21:15:08;;;;;;;0.70;0.70;;;;;;;;;;4943935;28;20843;-53
2022/12/17 21:17:34;;;;;;;0.75;0.75;;;;;;;;;;4921529;28;20439;-53
2022/12/17 21:20:00;;;;;;;0.90;0.90;;;;;;;;;;4931387;28;22974;-53
2022/12/17 21:22:26;;;;;;;0.77;0.77;;;;;;;;;;4948326;28;20421;-53
2022/12/17 21:24:52;;;;;;;0.70;0.70;;;;;;;;;;4949272;28;20437;-53
2022/12/17 21:27:19;;;;;;;0.80;0.80;;;;;;;;;;4939478;28;21182;-53
2022/12/17 21:29:45;;;;;;;0.90;0.90;;;;;;;;;;4929503;28;20469;-53
2022/12/17 21:32:11;;;;;;;0.98;0.98;;;;;;;;;;4942028;28;21191;-54
2022/12/17 21:34:37;;;;;;;0.90;0.90;;;;;;;;;;4955352;28;20512;-53
2022/12/17 21:37:03;;;;;;;0.88;0.88;;;;;;;;;;4954708;28;20468;-53
2022/12/17 21:39:29;;;;;;;0.80;0.80;;;;;;;;;;4954065;28;20427;-54
2022/12/17 21:44:40;;;;;;;0.80;0.80;;;;;;;;;;4942559;28;21088;-52
2022/12/17 21:47:06;;;;;;;0.80;0.80;;;;;;;;;;4940186;28;20937;-53
2022/12/17 21:49:32;;;;;;;0.80;0.80;;;;;;;;;;4931157;28;20420;-53
2022/12/17 21:51:58;;;;;;;0.80;0.80;;;;;;;;;;4961402;28;20937;-53
2022/12/17 21:54:24;;;;;;;0.80;0.80;;;;;;;;;;4946663;28;20866;-53
2022/12/17 21:56:50;;;;;;;0.80;0.80;;;;;;;;;;4951020;28;20428;-53
2022/12/17 21:59:16;;;;;;;1.00;1.00;;;;;;;;;;4933677;28;20425;-53
2022/12/17 22:01:42;;;;;;;0.80;0.80;;;;;;;;;;4942328;28;20430;-54
2022/12/17 22:04:08;;;;;;;0.80;0.80;;;;;;;;;;4957945;28;20425;-52
2022/12/17 22:06:37;;;;;;;0.70;0.70;;;;;;;;;;4938924;28;20465;-53
2022/12/17 22:09:04;;;;;;;0.70;0.70;;;;;;;;;;4949355;28;20457;-52
2022/12/17 22:11:30;;;;;;;1.00;1.00;;;;;;;;;;4922413;28;20434;-54
2022/12/17 22:14:02;;;;;;;0.90;0.90;;;;;;;;;;4962101;28;20416;-53
2022/12/17 22:16:47;;;;;;;0.90;0.90;;;;;;;;;;4950276;28;20457;-53
2022/12/17 22:19:13;;;;;;;0.70;0.70;;;;;;;;;;4973320;28;20430;-53
2022/12/17 22:21:40;;;;;;;1.00;1.00;;;;;;;;;;4933706;28;20425;-53
2022/12/17 22:24:07;;;;;;;1.00;1.00;;;;;;;;;;4948466;28;20426;-53
2022/12/17 22:26:33;;;;;;;0.95;0.95;;;;;;;;;;4950371;28;20442;-53
2022/12/17 22:28:59;;;;;;;0.70;0.70;;;;;;;;;;4957237;28;20417;-53
2022/12/17 22:34:10;;;;;;;0.90;0.90;;;;;;;;;;4932620;28;20969;-54
2022/12/17 22:36:36;;;;;;;0.80;0.80;;;;;;;;;;4927689;23;20467;-65
2022/12/17 22:39:03;;;;;;;0.80;0.80;;;;;;;;;;4953326;23;20458;-66
2022/12/17 22:44:14;;;;;;;0.80;0.80;;;;;;;;;;4942148;28;20766;-64
2022/12/17 22:46:40;;;;;;;0.80;0.80;;;;;;;;;;4961221;28;20436;-64
2022/12/17 22:49:06;;;;;;;0.70;0.70;;;;;;;;;;4960264;28;20425;-65
2022/12/17 22:51:31;;;;;;;0.68;0.68;;;;;;;;;;4959683;28;20786;-64
2022/12/17 22:53:59;;;;;;;0.90;0.90;;;;;;;;;;4965483;28;20474;-64
2022/12/17 22:56:25;;;;;;;0.90;0.90;;;;;;;;;;4967946;28;20419;-66
2022/12/17 22:58:51;;;;;;;0.90;0.90;;;;;;;;;;4964244;28;20418;-66
2022/12/17 23:01:17;;;;;;;1.02;1.02;;;;;;;;;;4961925;28;20429;-64
2022/12/17 23:03:43;;;;;;;0.80;0.80;;;;;;;;;;4956770;28;20523;-65
2022/12/17 23:06:13;;;;;;;0.70;0.70;;;;;;;;;;4946421;28;20420;-66
2022/12/17 23:08:39;;;;;;;0.80;0.80;;;;;;;;;;4961098;28;20420;-66
2022/12/17 23:11:09;;;;;;;0.70;0.70;;;;;;;;;;4974966;28;20427;-64
2022/12/17 23:13:35;;;;;;;0.70;0.70;;;;;;;;;;4974383;28;20426;-65
2022/12/17 23:16:01;;;;;;;1.00;1.00;;;;;;;;;;4977582;28;20550;-64
2022/12/17 23:18:27;;;;;;;0.80;0.80;;;;;;;;;;4978039;28;20430;-66
2022/12/17 23:20:53;;;;;;;0.70;0.70;;;;;;;;;;4982921;28;20436;-64
2022/12/17 23:23:19;;;;;;;0.70;0.70;;;;;;;;;;4961821;28;20575;-64
2022/12/17 23:25:45;;;;;;;0.70;0.70;;;;;;;;;;4978684;28;20858;-64
2022/12/17 23:28:11;;;;;;;0.90;0.90;;;;;;;;;;4982244;28;20968;-64
2022/12/17 23:30:37;;;;;;;0.75;0.75;;;;;;;;;;4970025;28;20459;-65
2022/12/17 23:33:03;;;;;;;0.70;0.70;;;;;;;;;;4976955;28;20515;-66
2022/12/17 23:35:29;;;;;;;0.70;0.70;;;;;;;;;;4970272;28;20415;-66
2022/12/17 23:37:55;;;;;;;0.90;0.90;;;;;;;;;;4976581;28;20525;-66
2022/12/17 23:40:21;;;;;;;0.70;0.70;;;;;;;;;;4971892;28;20938;-66
2022/12/17 23:42:47;;;;;;;0.80;0.80;;;;;;;;;;4975159;28;20427;-66
2022/12/17 23:45:13;;;;;;;0.70;0.70;;;;;;;;;;4973861;28;20422;-65
2022/12/17 23:47:39;;;;;;;1.10;1.10;;;;;;;;;;4959103;28;20479;-66
2022/12/17 23:50:06;;;;;;;0.90;0.90;;;;;;;;;;4971572;28;20418;-66
2022/12/17 23:52:32;;;;;;;0.90;0.90;;;;;;;;;;4975575;28;21086;-65
2022/12/17 23:54:58;;;;;;;1.00;1.00;;;;;;;;;;4971128;28;20428;-64
2022/12/17 23:57:24;;;;;;;0.90;0.90;;;;;;;;;;4975139;28;20435;-65
2022/12/17 23:59:50;;;;;;;0.80;0.80;;;;;;;;;;4965319;28;20446;-64
